Portada
METAR-TAF:

METAR-TAF

Aeroports :

Curaçao, Antilles Neerlandeses

latitud: 12-12N, longitud: 068-58W, altitud: 9 m

Observació

L'informe es va fer fa 12 minuts, a les 18:00 UTC
Vent 14 kt del Est
Temperatura 31°C
Humitat 66%
Pressió 1014 hPa
Visibilitat 10 km o més
Núvols disperses a una alçada de 2500 ft

METAR: TNCC 011800Z 09014KT 9999 SCT025 31/24 Q1014 NOSIG

Hora: 14:12 (18:12 UTC)

Pronòstic

L'informe es va fer fa 57 minuts, a les 17:15 UTC
Pronòstic vàlid del 01 a les 18 UTC al 02 a les 18 UTC
Vent 14 kt del Est
Visibilitat 10 km o més
Núvols disperses a una alçada de 2200 ft

TAF: TNCC 011715Z 0118/0218 10014KT 9999 SCT022

Observacions i pronòstics meteorològics de més de 4000 aeroports (METAR i TAF).

Les estacions disponibles són els punts grocs i vermells al mapa.

Posi el ratolí al punt desitjat per veure el nom de l'estació.

Feu clic per veure les observacions i els pronòstics meteorològics.

Per canviar el mapa: feu clic els botons verds amb una creu de color negre per apropar; al botó verd amb un guió per allunyar la imatge; o en les fletxes verdes per a mapes adjacents.


METAR-TAF: